sensor_id;sensor_type;location;lat;lon;timestamp;temperature;humidity
18207;DHT22;9229;52.354;20.886;2023-07-22T00:04:30;17.70;99.90
18207;DHT22;9229;52.354;20.886;2023-07-22T00:09:32;17.70;99.90
18207;DHT22;9229;52.354;20.886;2023-07-22T00:14:38;17.70;99.90
18207;DHT22;9229;52.354;20.886;2023-07-22T00:19:42;17.80;99.90
18207;DHT22;9229;52.354;20.886;2023-07-22T00:24:45;17.70;99.90
18207;DHT22;9229;52.354;20.886;2023-07-22T00:29:47;17.70;99.90
18207;DHT22;9229;52.354;20.886;2023-07-22T00:34:50;17.90;99.90
18207;DHT22;9229;52.354;20.886;2023-07-22T00:39:52;17.80;99.90
18207;DHT22;9229;52.354;20.886;2023-07-22T00:44:55;18.10;99.90
18207;DHT22;9229;52.354;20.886;2023-07-22T00:50:00;17.80;99.90
18207;DHT22;9229;52.354;20.886;2023-07-22T00:55:06;17.90;99.90
18207;DHT22;9229;52.354;20.886;2023-07-22T01:00:09;17.80;99.90
18207;DHT22;9229;52.354;20.886;2023-07-22T01:05:14;17.80;99.90
18207;DHT22;9229;52.354;20.886;2023-07-22T01:10:16;17.80;99.90
18207;DHT22;9229;52.354;20.886;2023-07-22T01:15:19;17.70;99.90
18207;DHT22;9229;52.354;20.886;2023-07-22T01:20:24;17.80;99.90
18207;DHT22;9229;52.354;20.886;2023-07-22T01:25:29;17.80;99.90
18207;DHT22;9229;52.354;20.886;2023-07-22T01:30:32;18.00;99.90
18207;DHT22;9229;52.354;20.886;2023-07-22T01:35:33;17.90;99.90
18207;DHT22;9229;52.354;20.886;2023-07-22T01:40:37;17.80;99.90
18207;DHT22;9229;52.354;20.886;2023-07-22T01:45:39;17.60;99.90
18207;DHT22;9229;52.354;20.886;2023-07-22T01:50:42;17.50;99.90
18207;DHT22;9229;52.354;20.886;2023-07-22T01:55:45;17.40;99.90
18207;DHT22;9229;52.354;20.886;2023-07-22T02:00:49;17.30;99.90
18207;DHT22;9229;52.354;20.886;2023-07-22T02:05:51;17.20;99.90
18207;DHT22;9229;52.354;20.886;2023-07-22T02:10:58;17.10;99.90
18207;DHT22;9229;52.354;20.886;2023-07-22T02:16:00;17.00;99.90
18207;DHT22;9229;52.354;20.886;2023-07-22T02:21:03;17.00;99.90
18207;DHT22;9229;52.354;20.886;2023-07-22T02:26:07;17.00;99.90
18207;DHT22;9229;52.354;20.886;2023-07-22T02:31:09;17.40;99.90
18207;DHT22;9229;52.354;20.886;2023-07-22T02:36:11;17.00;99.90
18207;DHT22;9229;52.354;20.886;2023-07-22T02:41:15;17.00;99.90
18207;DHT22;9229;52.354;20.886;2023-07-22T02:46:17;17.10;99.90
18207;DHT22;9229;52.354;20.886;2023-07-22T02:51:20;17.10;99.90
18207;DHT22;9229;52.354;20.886;2023-07-22T02:56:23;17.30;99.90
18207;DHT22;9229;52.354;20.886;2023-07-22T03:01:25;17.20;99.90
18207;DHT22;9229;52.354;20.886;2023-07-22T03:06:27;17.20;99.90
18207;DHT22;9229;52.354;20.886;2023-07-22T03:11:33;17.20;99.90
18207;DHT22;9229;52.354;20.886;2023-07-22T03:16:35;17.20;99.90
18207;DHT22;9229;52.354;20.886;2023-07-22T03:21:37;17.30;99.90
18207;DHT22;9229;52.354;20.886;2023-07-22T03:26:40;17.30;99.90
18207;DHT22;9229;52.354;20.886;2023-07-22T03:31:42;17.40;99.90
18207;DHT22;9229;52.354;20.886;2023-07-22T03:36:44;17.40;99.90
18207;DHT22;9229;52.354;20.886;2023-07-22T03:41:48;17.40;99.90
18207;DHT22;9229;52.354;20.886;2023-07-22T03:46:50;17.60;99.90
18207;DHT22;9229;52.354;20.886;2023-07-22T03:51:52;17.70;99.90
18207;DHT22;9229;52.354;20.886;2023-07-22T03:56:55;17.80;99.90
18207;DHT22;9229;52.354;20.886;2023-07-22T04:01:57;17.80;99.90
18207;DHT22;9229;52.354;20.886;2023-07-22T04:06:59;17.80;99.90
18207;DHT22;9229;52.354;20.886;2023-07-22T04:12:03;17.90;99.90
18207;DHT22;9229;52.354;20.886;2023-07-22T04:17:05;18.00;99.90
18207;DHT22;9229;52.354;20.886;2023-07-22T04:22:08;18.00;99.90
18207;DHT22;9229;52.354;20.886;2023-07-22T04:27:14;17.90;99.90
18207;DHT22;9229;52.354;20.886;2023-07-22T04:32:20;17.80;99.90
18207;DHT22;9229;52.354;20.886;2023-07-22T04:37:22;18.10;99.90
18207;DHT22;9229;52.354;20.886;2023-07-22T04:42:25;17.80;99.90
18207;DHT22;9229;52.354;20.886;2023-07-22T04:47:29;17.80;99.90
18207;DHT22;9229;52.354;20.886;2023-07-22T04:52:33;17.70;99.90
18207;DHT22;9229;52.354;20.886;2023-07-22T04:57:37;17.70;99.90
18207;DHT22;9229;52.354;20.886;2023-07-22T05:02:39;18.10;99.90
18207;DHT22;9229;52.354;20.886;2023-07-22T05:07:41;17.80;99.90
18207;DHT22;9229;52.354;20.886;2023-07-22T05:12:45;17.80;99.90
18207;DHT22;9229;52.354;20.886;2023-07-22T05:17:47;17.90;99.90
18207;DHT22;9229;52.354;20.886;2023-07-22T05:22:49;17.80;99.90
18207;DHT22;9229;52.354;20.886;2023-07-22T05:27:52;17.90;99.90
18207;DHT22;9229;52.354;20.886;2023-07-22T05:32:55;17.90;99.90
18207;DHT22;9229;52.354;20.886;2023-07-22T05:37:56;17.90;99.90
18207;DHT22;9229;52.354;20.886;2023-07-22T05:43:02;17.90;99.90
18207;DHT22;9229;52.354;20.886;2023-07-22T05:48:06;18.00;99.90
18207;DHT22;9229;52.354;20.886;2023-07-22T05:53:08;18.10;99.90
18207;DHT22;9229;52.354;20.886;2023-07-22T05:58:16;18.20;99.90
18207;DHT22;9229;52.354;20.886;2023-07-22T06:03:22;18.30;99.90
18207;DHT22;9229;52.354;20.886;2023-07-22T06:08:24;17.80;99.90
18207;DHT22;9229;52.354;20.886;2023-07-22T06:13:29;18.60;99.90
18207;DHT22;9229;52.354;20.886;2023-07-22T06:18:35;18.80;99.90
18207;DHT22;9229;52.354;20.886;2023-07-22T06:23:37;19.30;99.90
18207;DHT22;9229;52.354;20.886;2023-07-22T06:28:41;19.40;99.90
18207;DHT22;9229;52.354;20.886;2023-07-22T06:33:43;19.50;99.90
18207;DHT22;9229;52.354;20.886;2023-07-22T06:38:45;19.90;99.90
18207;DHT22;9229;52.354;20.886;2023-07-22T06:43:49;20.20;99.90
18207;DHT22;9229;52.354;20.886;2023-07-22T06:48:51;20.40;99.90
18207;DHT22;9229;52.354;20.886;2023-07-22T06:53:55;20.70;99.90
18207;DHT22;9229;52.354;20.886;2023-07-22T06:59:14;21.20;99.90
18207;DHT22;9229;52.354;20.886;2023-07-22T07:04:16;21.80;99.90
18207;DHT22;9229;52.354;20.886;2023-07-22T07:09:21;23.00;99.90
18207;DHT22;9229;52.354;20.886;2023-07-22T07:14:24;23.40;99.90
18207;DHT22;9229;52.354;20.886;2023-07-22T07:19:50;24.10;99.90
18207;DHT22;9229;52.354;20.886;2023-07-22T07:24:52;24.10;99.90
18207;DHT22;9229;52.354;20.886;2023-07-22T07:29:57;23.80;99.90
18207;DHT22;9229;52.354;20.886;2023-07-22T07:34:59;23.40;99.90
18207;DHT22;9229;52.354;20.886;2023-07-22T07:40:01;23.20;99.90
18207;DHT22;9229;52.354;20.886;2023-07-22T07:45:08;23.90;99.90
18207;DHT22;9229;52.354;20.886;2023-07-22T07:50:10;23.90;99.90
18207;DHT22;9229;52.354;20.886;2023-07-22T07:55:12;24.30;99.90
18207;DHT22;9229;52.354;20.886;2023-07-22T08:00:17;25.50;99.40
18207;DHT22;9229;52.354;20.886;2023-07-22T08:05:20;26.60;95.70
18207;DHT22;9229;52.354;20.886;2023-07-22T08:10:22;27.00;93.20
18207;DHT22;9229;52.354;20.886;2023-07-22T08:15:28;27.40;90.80
18207;DHT22;9229;52.354;20.886;2023-07-22T08:20:30;27.50;87.20
18207;DHT22;9229;52.354;20.886;2023-07-22T08:25:32;27.70;84.10
18207;DHT22;9229;52.354;20.886;2023-07-22T08:30:35;27.60;83.80
18207;DHT22;9229;52.354;20.886;2023-07-22T08:35:38;27.20;83.70
18207;DHT22;9229;52.354;20.886;2023-07-22T08:40:40;27.20;84.00
18207;DHT22;9229;52.354;20.886;2023-07-22T08:45:44;27.80;82.30
18207;DHT22;9229;52.354;20.886;2023-07-22T08:50:50;28.00;81.20
18207;DHT22;9229;52.354;20.886;2023-07-22T08:55:53;27.50;82.10
18207;DHT22;9229;52.354;20.886;2023-07-22T09:00:58;27.40;80.20
18207;DHT22;9229;52.354;20.886;2023-07-22T09:06:04;26.90;82.30
18207;DHT22;9229;52.354;20.886;2023-07-22T09:11:06;26.40;82.30
18207;DHT22;9229;52.354;20.886;2023-07-22T09:16:10;26.20;80.90
18207;DHT22;9229;52.354;20.886;2023-07-22T09:21:15;25.20;80.50
18207;DHT22;9229;52.354;20.886;2023-07-22T09:26:18;26.50;77.00
18207;DHT22;9229;52.354;20.886;2023-07-22T09:31:24;28.50;73.10
18207;DHT22;9229;52.354;20.886;2023-07-22T09:36:27;29.80;67.50
18207;DHT22;9229;52.354;20.886;2023-07-22T09:41:41;29.20;66.30
18207;DHT22;9229;52.354;20.886;2023-07-22T09:46:48;28.40;66.20
18207;DHT22;9229;52.354;20.886;2023-07-22T09:51:51;28.60;66.00
18207;DHT22;9229;52.354;20.886;2023-07-22T09:56:54;29.40;62.00
18207;DHT22;9229;52.354;20.886;2023-07-22T10:01:58;29.40;60.90
18207;DHT22;9229;52.354;20.886;2023-07-22T10:07:04;29.50;61.60
18207;DHT22;9229;52.354;20.886;2023-07-22T10:12:08;30.70;60.70
18207;DHT22;9229;52.354;20.886;2023-07-22T10:17:12;30.10;59.40
18207;DHT22;9229;52.354;20.886;2023-07-22T10:22:15;30.90;58.10
18207;DHT22;9229;52.354;20.886;2023-07-22T10:27:18;32.00;53.90
18207;DHT22;9229;52.354;20.886;2023-07-22T10:32:22;30.00;55.90
18207;DHT22;9229;52.354;20.886;2023-07-22T10:37:30;27.90;59.10
18207;DHT22;9229;52.354;20.886;2023-07-22T10:42:32;26.70;62.50
18207;DHT22;9229;52.354;20.886;2023-07-22T10:47:35;26.00;64.60
18207;DHT22;9229;52.354;20.886;2023-07-22T10:52:40;25.80;66.40
18207;DHT22;9229;52.354;20.886;2023-07-22T10:57:49;25.60;67.60
18207;DHT22;9229;52.354;20.886;2023-07-22T11:03:10;26.20;66.50
18207;DHT22;9229;52.354;20.886;2023-07-22T11:08:13;27.00;64.10
18207;DHT22;9229;52.354;20.886;2023-07-22T11:13:15;28.10;61.10
18207;DHT22;9229;52.354;20.886;2023-07-22T11:18:18;27.00;63.20
18207;DHT22;9229;52.354;20.886;2023-07-22T11:23:20;25.60;66.40
18207;DHT22;9229;52.354;20.886;2023-07-22T11:28:22;24.80;69.30
18207;DHT22;9229;52.354;20.886;2023-07-22T11:33:26;24.30;71.60
18207;DHT22;9229;52.354;20.886;2023-07-22T11:38:28;25.10;71.40
18207;DHT22;9229;52.354;20.886;2023-07-22T11:43:31;26.70;66.60
18207;DHT22;9229;52.354;20.886;2023-07-22T11:48:35;27.50;64.80
18207;DHT22;9229;52.354;20.886;2023-07-22T11:53:37;27.80;65.20
18207;DHT22;9229;52.354;20.886;2023-07-22T11:58:40;29.20;59.70
18207;DHT22;9229;52.354;20.886;2023-07-22T12:03:43;30.60;57.70
18207;DHT22;9229;52.354;20.886;2023-07-22T12:08:52;31.70;55.10
18207;DHT22;9229;52.354;20.886;2023-07-22T12:14:06;31.20;55.00
18207;DHT22;9229;52.354;20.886;2023-07-22T12:19:11;30.30;55.10
18207;DHT22;9229;52.354;20.886;2023-07-22T12:24:14;28.90;57.60
18207;DHT22;9229;52.354;20.886;2023-07-22T12:29:16;28.20;58.80
18207;DHT22;9229;52.354;20.886;2023-07-22T12:34:19;28.60;58.30
18207;DHT22;9229;52.354;20.886;2023-07-22T12:39:22;29.40;58.40
18207;DHT22;9229;52.354;20.886;2023-07-22T12:44:24;30.20;56.10
18207;DHT22;9229;52.354;20.886;2023-07-22T12:49:27;30.60;54.80
18207;DHT22;9229;52.354;20.886;2023-07-22T12:54:29;31.30;52.20
18207;DHT22;9229;52.354;20.886;2023-07-22T12:59:31;31.30;49.40
18207;DHT22;9229;52.354;20.886;2023-07-22T13:04:34;32.00;49.00
18207;DHT22;9229;52.354;20.886;2023-07-22T13:09:36;31.90;48.90
18207;DHT22;9229;52.354;20.886;2023-07-22T13:14:38;31.80;49.80
18207;DHT22;9229;52.354;20.886;2023-07-22T13:19:42;32.40;49.40
18207;DHT22;9229;52.354;20.886;2023-07-22T13:24:44;32.00;48.20
18207;DHT22;9229;52.354;20.886;2023-07-22T13:29:46;32.30;46.40
18207;DHT22;9229;52.354;20.886;2023-07-22T13:34:50;31.30;47.10
18207;DHT22;9229;52.354;20.886;2023-07-22T13:39:51;30.70;47.20
18207;DHT22;9229;52.354;20.886;2023-07-22T13:44:54;30.30;48.80
18207;DHT22;9229;52.354;20.886;2023-07-22T13:49:58;30.10;50.20
18207;DHT22;9229;52.354;20.886;2023-07-22T13:55:00;30.50;48.40
18207;DHT22;9229;52.354;20.886;2023-07-22T14:00:02;31.00;48.50
18207;DHT22;9229;52.354;20.886;2023-07-22T14:05:14;31.10;46.90
18207;DHT22;9229;52.354;20.886;2023-07-22T14:10:16;30.30;49.20
18207;DHT22;9229;52.354;20.886;2023-07-22T14:15:18;29.30;50.90
18207;DHT22;9229;52.354;20.886;2023-07-22T14:20:21;28.20;52.30
18207;DHT22;9229;52.354;20.886;2023-07-22T14:25:23;27.30;55.30
18207;DHT22;9229;52.354;20.886;2023-07-22T14:30:25;26.60;56.70
18207;DHT22;9229;52.354;20.886;2023-07-22T14:35:28;25.90;57.30
18207;DHT22;9229;52.354;20.886;2023-07-22T14:40:30;25.40;58.50
18207;DHT22;9229;52.354;20.886;2023-07-22T14:45:32;24.90;59.20
18207;DHT22;9229;52.354;20.886;2023-07-22T14:50:36;24.60;59.80
18207;DHT22;9229;52.354;20.886;2023-07-22T14:55:38;24.60;60.10
18207;DHT22;9229;52.354;20.886;2023-07-22T15:00:40;24.60;60.30
18207;DHT22;9229;52.354;20.886;2023-07-22T15:05:44;24.70;60.60
18207;DHT22;9229;52.354;20.886;2023-07-22T15:10:46;24.30;62.40
18207;DHT22;9229;52.354;20.886;2023-07-22T15:15:48;24.10;63.40
18207;DHT22;9229;52.354;20.886;2023-07-22T15:20:52;24.10;63.20
18207;DHT22;9229;52.354;20.886;2023-07-22T15:25:54;23.90;62.70
18207;DHT22;9229;52.354;20.886;2023-07-22T15:30:56;23.80;63.00
18207;DHT22;9229;52.354;20.886;2023-07-22T15:35:59;23.70;61.70
18207;DHT22;9229;52.354;20.886;2023-07-22T15:41:01;23.60;61.00
18207;DHT22;9229;52.354;20.886;2023-07-22T15:46:03;23.60;59.10
18207;DHT22;9229;52.354;20.886;2023-07-22T15:51:07;23.60;58.80
18207;DHT22;9229;52.354;20.886;2023-07-22T15:56:09;23.40;59.10
18207;DHT22;9229;52.354;20.886;2023-07-22T16:01:11;23.40;59.20
18207;DHT22;9229;52.354;20.886;2023-07-22T16:06:14;23.50;59.40
18207;DHT22;9229;52.354;20.886;2023-07-22T16:11:18;23.40;58.70
18207;DHT22;9229;52.354;20.886;2023-07-22T16:16:21;23.40;59.00
18207;DHT22;9229;52.354;20.886;2023-07-22T16:21:24;23.30;58.40
18207;DHT22;9229;52.354;20.886;2023-07-22T16:26:27;23.30;56.90
18207;DHT22;9229;52.354;20.886;2023-07-22T16:31:29;23.30;57.10
18207;DHT22;9229;52.354;20.886;2023-07-22T16:36:32;23.40;57.00
18207;DHT22;9229;52.354;20.886;2023-07-22T16:41:34;23.20;56.70
18207;DHT22;9229;52.354;20.886;2023-07-22T16:46:36;23.10;57.30
18207;DHT22;9229;52.354;20.886;2023-07-22T16:51:39;22.90;57.50
18207;DHT22;9229;52.354;20.886;2023-07-22T16:56:41;22.90;57.90
18207;DHT22;9229;52.354;20.886;2023-07-22T17:01:43;22.70;58.10
18207;DHT22;9229;52.354;20.886;2023-07-22T17:06:47;22.70;58.50
18207;DHT22;9229;52.354;20.886;2023-07-22T17:11:49;22.60;58.40
18207;DHT22;9229;52.354;20.886;2023-07-22T17:16:51;22.50;58.90
18207;DHT22;9229;52.354;20.886;2023-07-22T17:21:54;22.30;58.60
18207;DHT22;9229;52.354;20.886;2023-07-22T17:26:56;22.20;58.20
18207;DHT22;9229;52.354;20.886;2023-07-22T17:31:58;22.10;57.70
18207;DHT22;9229;52.354;20.886;2023-07-22T17:37:01;22.10;57.40
18207;DHT22;9229;52.354;20.886;2023-07-22T17:42:04;22.00;57.80
18207;DHT22;9229;52.354;20.886;2023-07-22T17:47:06;21.90;57.50
18207;DHT22;9229;52.354;20.886;2023-07-22T17:52:09;21.80;57.80
18207;DHT22;9229;52.354;20.886;2023-07-22T17:57:11;21.70;58.30
18207;DHT22;9229;52.354;20.886;2023-07-22T18:02:13;21.60;58.50
18207;DHT22;9229;52.354;20.886;2023-07-22T18:07:17;21.40;58.90
18207;DHT22;9229;52.354;20.886;2023-07-22T18:12:19;21.30;59.50
18207;DHT22;9229;52.354;20.886;2023-07-22T18:17:21;21.10;59.90
18207;DHT22;9229;52.354;20.886;2023-07-22T18:22:25;21.00;60.40
18207;DHT22;9229;52.354;20.886;2023-07-22T18:27:28;20.80;61.10
18207;DHT22;9229;52.354;20.886;2023-07-22T18:32:30;20.60;61.80
18207;DHT22;9229;52.354;20.886;2023-07-22T18:37:33;20.60;62.30
18207;DHT22;9229;52.354;20.886;2023-07-22T18:42:35;20.20;62.70
18207;DHT22;9229;52.354;20.886;2023-07-22T18:47:37;20.10;63.30
18207;DHT22;9229;52.354;20.886;2023-07-22T18:52:40;19.90;64.00
18207;DHT22;9229;52.354;20.886;2023-07-22T18:57:43;19.80;64.80
18207;DHT22;9229;52.354;20.886;2023-07-22T19:02:45;19.60;65.50
18207;DHT22;9229;52.354;20.886;2023-07-22T19:07:48;19.40;66.20
18207;DHT22;9229;52.354;20.886;2023-07-22T19:12:50;19.20;66.90
18207;DHT22;9229;52.354;20.886;2023-07-22T19:17:53;19.10;68.00
18207;DHT22;9229;52.354;20.886;2023-07-22T19:22:56;18.90;68.70
18207;DHT22;9229;52.354;20.886;2023-07-22T19:27:58;18.70;69.30
18207;DHT22;9229;52.354;20.886;2023-07-22T19:33:00;18.60;70.10
18207;DHT22;9229;52.354;20.886;2023-07-22T19:38:05;18.40;70.60
18207;DHT22;9229;52.354;20.886;2023-07-22T19:43:07;18.30;71.20
18207;DHT22;9229;52.354;20.886;2023-07-22T19:48:08;18.10;71.60
18207;DHT22;9229;52.354;20.886;2023-07-22T19:53:12;18.00;72.00
18207;DHT22;9229;52.354;20.886;2023-07-22T19:58:16;17.90;72.70
18207;DHT22;9229;52.354;20.886;2023-07-22T20:03:19;17.80;73.40
18207;DHT22;9229;52.354;20.886;2023-07-22T20:08:23;17.80;74.20
18207;DHT22;9229;52.354;20.886;2023-07-22T20:13:25;17.50;74.70
18207;DHT22;9229;52.354;20.886;2023-07-22T20:18:27;17.40;75.10
18207;DHT22;9229;52.354;20.886;2023-07-22T20:23:30;17.30;76.30
18207;DHT22;9229;52.354;20.886;2023-07-22T20:28:32;17.80;76.40
18207;DHT22;9229;52.354;20.886;2023-07-22T20:33:34;17.10;76.30
18207;DHT22;9229;52.354;20.886;2023-07-22T20:38:38;17.10;77.20
18207;DHT22;9229;52.354;20.886;2023-07-22T20:43:42;17.00;78.70
18207;DHT22;9229;52.354;20.886;2023-07-22T20:48:46;16.80;80.30
18207;DHT22;9229;52.354;20.886;2023-07-22T20:54:03;16.80;82.40
18207;DHT22;9229;52.354;20.886;2023-07-22T20:59:05;16.50;83.30
18207;DHT22;9229;52.354;20.886;2023-07-22T21:04:07;16.30;83.80
18207;DHT22;9229;52.354;20.886;2023-07-22T21:09:11;16.10;84.70
18207;DHT22;9229;52.354;20.886;2023-07-22T21:14:12;16.00;86.30
18207;DHT22;9229;52.354;20.886;2023-07-22T21:19:14;15.90;87.90
18207;DHT22;9229;52.354;20.886;2023-07-22T21:24:18;15.70;89.00
18207;DHT22;9229;52.354;20.886;2023-07-22T21:29:20;15.60;90.20
18207;DHT22;9229;52.354;20.886;2023-07-22T21:34:22;15.50;90.90
18207;DHT22;9229;52.354;20.886;2023-07-22T21:39:25;15.30;91.10
18207;DHT22;9229;52.354;20.886;2023-07-22T21:44:28;15.20;91.70
18207;DHT22;9229;52.354;20.886;2023-07-22T21:49:30;15.10;92.10
18207;DHT22;9229;52.354;20.886;2023-07-22T21:54:33;15.00;92.10
18207;DHT22;9229;52.354;20.886;2023-07-22T21:59:36;14.90;92.10
18207;DHT22;9229;52.354;20.886;2023-07-22T22:04:40;14.80;92.10
18207;DHT22;9229;52.354;20.886;2023-07-22T22:09:43;14.70;92.40
18207;DHT22;9229;52.354;20.886;2023-07-22T22:14:45;14.70;92.80
18207;DHT22;9229;52.354;20.886;2023-07-22T22:19:47;14.60;93.10
18207;DHT22;9229;52.354;20.886;2023-07-22T22:24:50;14.50;93.60
18207;DHT22;9229;52.354;20.886;2023-07-22T22:29:52;14.40;94.20
18207;DHT22;9229;52.354;20.886;2023-07-22T22:34:54;14.40;95.10
18207;DHT22;9229;52.354;20.886;2023-07-22T22:39:58;14.30;95.70
18207;DHT22;9229;52.354;20.886;2023-07-22T22:45:00;14.30;96.90
18207;DHT22;9229;52.354;20.886;2023-07-22T22:50:02;14.20;98.40
18207;DHT22;9229;52.354;20.886;2023-07-22T22:55:06;14.20;99.80
18207;DHT22;9229;52.354;20.886;2023-07-22T23:00:08;14.10;99.90
18207;DHT22;9229;52.354;20.886;2023-07-22T23:05:11;14.00;99.90
18207;DHT22;9229;52.354;20.886;2023-07-22T23:10:15;13.90;99.90
18207;DHT22;9229;52.354;20.886;2023-07-22T23:15:17;13.80;99.90
18207;DHT22;9229;52.354;20.886;2023-07-22T23:20:19;13.80;99.90
18207;DHT22;9229;52.354;20.886;2023-07-22T23:25:22;13.70;99.90
18207;DHT22;9229;52.354;20.886;2023-07-22T23:30:24;13.60;99.90
18207;DHT22;9229;52.354;20.886;2023-07-22T23:35:26;13.50;99.90
18207;DHT22;9229;52.354;20.886;2023-07-22T23:40:29;13.40;99.90
18207;DHT22;9229;52.354;20.886;2023-07-22T23:45:31;13.30;99.90
18207;DHT22;9229;52.354;20.886;2023-07-22T23:50:33;13.30;99.90
18207;DHT22;9229;52.354;20.886;2023-07-22T23:55:37;13.30;99.90
